sensor_id;sensor_type;location;lat;lon;timestamp;pressure;altitude;pressure_sealevel;temperature;humidity
163;BME280;3946;48.958;8.284;2023-05-21T00:00:30;100082.69;;;15.94;92.15
163;BME280;3946;48.958;8.284;2023-05-21T00:03:15;100090.53;;;15.84;92.72
163;BME280;3946;48.958;8.284;2023-05-21T00:06:01;100096.72;;;16.02;91.98
163;BME280;3946;48.958;8.284;2023-05-21T00:08:46;100086.66;;;16.07;91.23
163;BME280;3946;48.958;8.284;2023-05-21T00:11:31;100086.53;;;15.99;92.09
163;BME280;3946;48.958;8.284;2023-05-21T00:14:16;100092.59;;;16.00;92.25
163;BME280;3946;48.958;8.284;2023-05-21T00:17:01;100089.41;;;15.96;92.60
163;BME280;3946;48.958;8.284;2023-05-21T00:19:46;100091.22;;;15.86;92.81
163;BME280;3946;48.958;8.284;2023-05-21T00:22:34;100085.31;;;15.84;93.65
163;BME280;3946;48.958;8.284;2023-05-21T00:25:19;100083.66;;;15.83;93.35
163;BME280;3946;48.958;8.284;2023-05-21T00:28:04;100075.53;;;15.96;93.20
163;BME280;3946;48.958;8.284;2023-05-21T00:30:50;100069.63;;;15.84;93.37
163;BME280;3946;48.958;8.284;2023-05-21T00:33:34;100071.28;;;15.85;93.59
163;BME280;3946;48.958;8.284;2023-05-21T00:36:20;100070.06;;;15.89;93.41
163;BME280;3946;48.958;8.284;2023-05-21T00:39:08;100057.81;;;15.90;93.44
163;BME280;3946;48.958;8.284;2023-05-21T00:41:53;100061.09;;;15.82;93.98
163;BME280;3946;48.958;8.284;2023-05-21T00:44:39;100060.44;;;15.90;93.86
163;BME280;3946;48.958;8.284;2023-05-21T00:47:24;100044.88;;;15.88;93.61
163;BME280;3946;48.958;8.284;2023-05-21T00:50:12;100045.03;;;15.87;93.85
163;BME280;3946;48.958;8.284;2023-05-21T00:52:58;100044.88;;;15.88;94.03
163;BME280;3946;48.958;8.284;2023-05-21T00:55:44;100042.69;;;15.84;94.52
163;BME280;3946;48.958;8.284;2023-05-21T00:58:29;100042.41;;;15.77;94.68
163;BME280;3946;48.958;8.284;2023-05-21T01:01:16;100033.34;;;15.71;95.02
163;BME280;3946;48.958;8.284;2023-05-21T01:04:02;100036.91;;;15.80;94.87
163;BME280;3946;48.958;8.284;2023-05-21T01:06:47;100037.31;;;15.75;94.59
163;BME280;3946;48.958;8.284;2023-05-21T01:09:32;100040.22;;;15.72;94.78
163;BME280;3946;48.958;8.284;2023-05-21T01:12:18;100042.28;;;15.69;95.02
163;BME280;3946;48.958;8.284;2023-05-21T01:15:04;100041.88;;;15.73;95.39
163;BME280;3946;48.958;8.284;2023-05-21T01:17:50;100029.47;;;15.75;94.86
163;BME280;3946;48.958;8.284;2023-05-21T01:20:35;100029.63;;;15.74;95.01
163;BME280;3946;48.958;8.284;2023-05-21T01:23:23;100031.00;;;15.68;95.41
163;BME280;3946;48.958;8.284;2023-05-21T01:26:08;100036.78;;;15.72;95.98
163;BME280;3946;48.958;8.284;2023-05-21T01:28:55;100028.94;;;15.72;95.37
163;BME280;3946;48.958;8.284;2023-05-21T01:31:44;100035.94;;;15.52;96.35
163;BME280;3946;48.958;8.284;2023-05-21T01:34:33;100030.44;;;15.65;96.40
163;BME280;3946;48.958;8.284;2023-05-21T01:37:22;100036.78;;;15.62;96.39
163;BME280;3946;48.958;8.284;2023-05-21T01:40:13;100028.38;;;15.59;96.36
163;BME280;3946;48.958;8.284;2023-05-21T01:43:00;100034.97;;;15.53;96.79
163;BME280;3946;48.958;8.284;2023-05-21T01:45:46;100035.13;;;15.61;96.66
163;BME280;3946;48.958;8.284;2023-05-21T01:48:32;100027.97;;;15.63;96.60
163;BME280;3946;48.958;8.284;2023-05-21T01:51:19;100030.47;;;15.55;97.22
163;BME280;3946;48.958;8.284;2023-05-21T01:54:04;100032.47;;;15.52;97.52
163;BME280;3946;48.958;8.284;2023-05-21T01:56:50;100016.81;;;15.52;97.40
163;BME280;3946;48.958;8.284;2023-05-21T01:59:35;100017.66;;;15.52;97.34
163;BME280;3946;48.958;8.284;2023-05-21T02:02:21;100011.59;;;15.32;98.15
163;BME280;3946;48.958;8.284;2023-05-21T02:05:06;100016.53;;;15.26;98.94
163;BME280;3946;48.958;8.284;2023-05-21T02:07:52;100012.41;;;15.33;99.10
163;BME280;3946;48.958;8.284;2023-05-21T02:10:37;100009.38;;;15.28;99.63
163;BME280;3946;48.958;8.284;2023-05-21T02:13:24;100007.47;;;15.39;98.83
163;BME280;3946;48.958;8.284;2023-05-21T02:16:09;100010.50;;;15.35;98.14
163;BME280;3946;48.958;8.284;2023-05-21T02:18:54;100004.59;;;15.23;99.92
163;BME280;3946;48.958;8.284;2023-05-21T02:21:40;100000.03;;;15.35;99.34
163;BME280;3946;48.958;8.284;2023-05-21T02:24:25;100004.03;;;15.20;99.88
163;BME280;3946;48.958;8.284;2023-05-21T02:27:10;100002.91;;;15.13;100.00
163;BME280;3946;48.958;8.284;2023-05-21T02:29:57;99996.16;;;15.10;100.00
163;BME280;3946;48.958;8.284;2023-05-21T02:32:42;99998.94;;;15.18;100.00
163;BME280;3946;48.958;8.284;2023-05-21T02:35:28;99993.03;;;15.16;100.00
163;BME280;3946;48.958;8.284;2023-05-21T02:38:13;99993.59;;;15.20;100.00
163;BME280;3946;48.958;8.284;2023-05-21T02:41:02;99984.53;;;15.24;100.00
163;BME280;3946;48.958;8.284;2023-05-21T02:43:47;99995.06;;;15.13;100.00
163;BME280;3946;48.958;8.284;2023-05-21T02:46:35;99993.97;;;15.15;100.00
163;BME280;3946;48.958;8.284;2023-05-21T02:49:20;99988.63;;;15.07;100.00
163;BME280;3946;48.958;8.284;2023-05-21T02:52:05;99991.97;;;14.79;100.00
163;BME280;3946;48.958;8.284;2023-05-21T02:54:51;99991.19;;;14.88;100.00
163;BME280;3946;48.958;8.284;2023-05-21T02:57:36;99994.84;;;14.66;100.00
163;BME280;3946;48.958;8.284;2023-05-21T03:00:21;99987.31;;;14.73;100.00
163;BME280;3946;48.958;8.284;2023-05-21T03:03:07;100000.13;;;14.95;100.00
163;BME280;3946;48.958;8.284;2023-05-21T03:05:53;99991.16;;;14.78;100.00
163;BME280;3946;48.958;8.284;2023-05-21T03:08:38;99996.72;;;14.54;100.00
163;BME280;3946;48.958;8.284;2023-05-21T03:11:23;99987.88;;;14.46;100.00
163;BME280;3946;48.958;8.284;2023-05-21T03:14:08;99991.75;;;14.42;100.00
163;BME280;3946;48.958;8.284;2023-05-21T03:16:53;99988.19;;;14.43;100.00
163;BME280;3946;48.958;8.284;2023-05-21T03:19:40;99988.72;;;14.46;100.00
163;BME280;3946;48.958;8.284;2023-05-21T03:22:25;99989.25;;;14.40;100.00
163;BME280;3946;48.958;8.284;2023-05-21T03:25:10;99986.03;;;14.27;100.00
163;BME280;3946;48.958;8.284;2023-05-21T03:27:56;99999.25;;;14.14;100.00
163;BME280;3946;48.958;8.284;2023-05-21T03:31:07;100000.59;;;13.88;100.00
163;BME280;3946;48.958;8.284;2023-05-21T03:33:52;100007.66;;;13.76;100.00
163;BME280;3946;48.958;8.284;2023-05-21T03:36:42;100005.44;;;13.92;100.00
163;BME280;3946;48.958;8.284;2023-05-21T03:39:27;100002.13;;;13.90;100.00
163;BME280;3946;48.958;8.284;2023-05-21T03:42:14;100000.50;;;14.20;100.00
163;BME280;3946;48.958;8.284;2023-05-21T03:45:05;100006.69;;;13.98;100.00
163;BME280;3946;48.958;8.284;2023-05-21T03:47:56;100007.22;;;13.92;100.00
163;BME280;3946;48.958;8.284;2023-05-21T03:50:41;100008.84;;;14.14;100.00
163;BME280;3946;48.958;8.284;2023-05-21T03:53:28;100012.63;;;13.79;100.00
163;BME280;3946;48.958;8.284;2023-05-21T03:56:13;100018.50;;;13.60;100.00
163;BME280;3946;48.958;8.284;2023-05-21T03:58:58;100023.50;;;13.52;100.00
163;BME280;3946;48.958;8.284;2023-05-21T04:01:44;100039.47;;;13.48;100.00
163;BME280;3946;48.958;8.284;2023-05-21T04:04:32;100038.91;;;13.44;100.00
163;BME280;3946;48.958;8.284;2023-05-21T04:07:17;100042.34;;;13.45;100.00
163;BME280;3946;48.958;8.284;2023-05-21T04:10:04;100035.09;;;13.48;100.00
163;BME280;3946;48.958;8.284;2023-05-21T04:12:50;100039.09;;;13.52;100.00
163;BME280;3946;48.958;8.284;2023-05-21T04:15:35;100042.41;;;13.54;100.00
163;BME280;3946;48.958;8.284;2023-05-21T04:18:21;100044.94;;;13.77;100.00
163;BME280;3946;48.958;8.284;2023-05-21T04:21:09;100038.84;;;13.87;100.00
163;BME280;3946;48.958;8.284;2023-05-21T04:23:54;100042.50;;;13.85;100.00
163;BME280;3946;48.958;8.284;2023-05-21T04:27:04;100037.06;;;14.09;100.00
163;BME280;3946;48.958;8.284;2023-05-21T04:29:49;100041.63;;;14.16;100.00
163;BME280;3946;48.958;8.284;2023-05-21T04:32:35;100036.78;;;14.32;100.00
163;BME280;3946;48.958;8.284;2023-05-21T04:35:21;100036.22;;;14.50;100.00
163;BME280;3946;48.958;8.284;2023-05-21T04:38:06;100028.72;;;14.66;100.00
163;BME280;3946;48.958;8.284;2023-05-21T04:40:51;100031.72;;;14.61;100.00
163;BME280;3946;48.958;8.284;2023-05-21T04:43:37;100037.84;;;14.81;100.00
163;BME280;3946;48.958;8.284;2023-05-21T04:46:27;100040.38;;;14.92;100.00
163;BME280;3946;48.958;8.284;2023-05-21T04:49:13;100042.47;;;15.08;100.00
163;BME280;3946;48.958;8.284;2023-05-21T04:51:59;100043.31;;;15.18;100.00
163;BME280;3946;48.958;8.284;2023-05-21T04:54:44;100036.72;;;15.33;100.00
163;BME280;3946;48.958;8.284;2023-05-21T04:57:30;100043.53;;;15.55;100.00
163;BME280;3946;48.958;8.284;2023-05-21T05:00:18;100043.91;;;15.60;100.00
163;BME280;3946;48.958;8.284;2023-05-21T05:03:03;100043.72;;;16.10;99.53
163;BME280;3946;48.958;8.284;2023-05-21T05:05:49;100043.69;;;16.39;97.64
163;BME280;3946;48.958;8.284;2023-05-21T05:08:34;100046.06;;;16.97;93.78
163;BME280;3946;48.958;8.284;2023-05-21T05:11:20;100045.22;;;17.24;92.04
163;BME280;3946;48.958;8.284;2023-05-21T05:14:06;100036.03;;;17.37;89.95
163;BME280;3946;48.958;8.284;2023-05-21T05:16:53;100025.06;;;17.69;87.91
163;BME280;3946;48.958;8.284;2023-05-21T05:19:42;100026.63;;;17.80;87.72
163;BME280;3946;48.958;8.284;2023-05-21T05:22:27;100020.38;;;17.99;86.45
163;BME280;3946;48.958;8.284;2023-05-21T05:25:13;100022.16;;;18.24;84.91
163;BME280;3946;48.958;8.284;2023-05-21T05:27:59;100022.47;;;18.21;84.23
163;BME280;3946;48.958;8.284;2023-05-21T05:30:44;100020.53;;;18.57;82.87
163;BME280;3946;48.958;8.284;2023-05-21T05:33:50;100001.41;;;19.23;80.36
163;BME280;3946;48.958;8.284;2023-05-21T05:36:36;99995.38;;;19.96;78.03
163;BME280;3946;48.958;8.284;2023-05-21T05:39:21;99976.28;;;20.10;75.56
163;BME280;3946;48.958;8.284;2023-05-21T05:42:07;99985.34;;;19.99;75.70
163;BME280;3946;48.958;8.284;2023-05-21T05:44:52;99994.06;;;19.91;76.09
163;BME280;3946;48.958;8.284;2023-05-21T05:47:37;100003.72;;;19.34;77.94
163;BME280;3946;48.958;8.284;2023-05-21T05:50:24;100016.53;;;18.71;80.58
163;BME280;3946;48.958;8.284;2023-05-21T05:53:10;100006.84;;;18.63;81.21
163;BME280;3946;48.958;8.284;2023-05-21T05:55:56;100014.69;;;18.37;82.10
163;BME280;3946;48.958;8.284;2023-05-21T05:58:42;100020.38;;;18.25;82.99
163;BME280;3946;48.958;8.284;2023-05-21T06:01:32;100015.03;;;18.34;83.16
163;BME280;3946;48.958;8.284;2023-05-21T06:04:17;100013.69;;;18.30;82.67
163;BME280;3946;48.958;8.284;2023-05-21T06:07:04;100021.41;;;18.32;82.78
163;BME280;3946;48.958;8.284;2023-05-21T06:09:49;100012.66;;;18.23;83.65
163;BME280;3946;48.958;8.284;2023-05-21T06:12:34;100016.16;;;18.32;82.99
163;BME280;3946;48.958;8.284;2023-05-21T06:15:19;100019.06;;;18.03;84.05
163;BME280;3946;48.958;8.284;2023-05-21T06:18:04;100022.94;;;17.91;85.30
163;BME280;3946;48.958;8.284;2023-05-21T06:20:50;100020.97;;;17.93;84.47
163;BME280;3946;48.958;8.284;2023-05-21T06:23:38;100021.94;;;17.92;85.09
163;BME280;3946;48.958;8.284;2023-05-21T06:26:23;100020.97;;;18.18;84.29
163;BME280;3946;48.958;8.284;2023-05-21T06:29:09;100024.91;;;18.14;84.60
163;BME280;3946;48.958;8.284;2023-05-21T06:31:54;100023.53;;;18.36;83.51
163;BME280;3946;48.958;8.284;2023-05-21T06:34:39;100024.81;;;18.58;82.93
163;BME280;3946;48.958;8.284;2023-05-21T06:37:23;100027.66;;;18.39;82.55
163;BME280;3946;48.958;8.284;2023-05-21T06:40:11;100020.09;;;18.36;82.71
163;BME280;3946;48.958;8.284;2023-05-21T06:42:57;100018.88;;;18.48;82.80
163;BME280;3946;48.958;8.284;2023-05-21T06:45:42;100010.81;;;18.75;81.79
163;BME280;3946;48.958;8.284;2023-05-21T06:48:43;100011.06;;;18.98;81.18
163;BME280;3946;48.958;8.284;2023-05-21T06:51:31;100008.03;;;18.85;80.69
163;BME280;3946;48.958;8.284;2023-05-21T06:54:16;100008.19;;;18.83;81.78
163;BME280;3946;48.958;8.284;2023-05-21T06:57:03;100009.28;;;19.15;80.36
163;BME280;3946;48.958;8.284;2023-05-21T06:59:48;100004.69;;;19.33;80.09
163;BME280;3946;48.958;8.284;2023-05-21T07:02:33;100004.91;;;19.32;80.27
163;BME280;3946;48.958;8.284;2023-05-21T07:05:19;100001.75;;;19.28;80.06
163;BME280;3946;48.958;8.284;2023-05-21T07:08:04;100002.06;;;19.33;79.66
163;BME280;3946;48.958;8.284;2023-05-21T07:10:50;100005.22;;;19.45;79.69
163;BME280;3946;48.958;8.284;2023-05-21T07:13:36;100008.34;;;19.40;79.49
163;BME280;3946;48.958;8.284;2023-05-21T07:16:22;100012.13;;;19.46;79.02
163;BME280;3946;48.958;8.284;2023-05-21T07:19:07;100000.16;;;19.60;78.60
163;BME280;3946;48.958;8.284;2023-05-21T07:21:52;99997.69;;;19.50;78.39
163;BME280;3946;48.958;8.284;2023-05-21T07:24:39;99998.84;;;19.47;78.77
163;BME280;3946;48.958;8.284;2023-05-21T07:27:24;100003.59;;;19.44;79.53
163;BME280;3946;48.958;8.284;2023-05-21T07:30:13;99995.38;;;19.87;78.54
163;BME280;3946;48.958;8.284;2023-05-21T07:32:58;99988.44;;;20.03;77.42
163;BME280;3946;48.958;8.284;2023-05-21T07:35:43;99987.94;;;20.15;76.54
163;BME280;3946;48.958;8.284;2023-05-21T07:38:29;99989.94;;;19.97;76.33
163;BME280;3946;48.958;8.284;2023-05-21T07:41:14;99985.09;;;20.41;76.17
163;BME280;3946;48.958;8.284;2023-05-21T07:43:59;99969.25;;;20.57;75.05
163;BME280;3946;48.958;8.284;2023-05-21T07:46:46;99979.19;;;20.39;74.63
163;BME280;3946;48.958;8.284;2023-05-21T07:49:32;99976.09;;;20.67;74.67
163;BME280;3946;48.958;8.284;2023-05-21T07:52:17;99962.75;;;20.99;73.73
163;BME280;3946;48.958;8.284;2023-05-21T07:55:02;99963.94;;;20.66;72.91
163;BME280;3946;48.958;8.284;2023-05-21T07:57:51;99965.09;;;21.25;72.74
163;BME280;3946;48.958;8.284;2023-05-21T08:00:41;99936.97;;;21.40;71.12
163;BME280;3946;48.958;8.284;2023-05-21T08:03:29;99965.03;;;21.33;71.91
163;BME280;3946;48.958;8.284;2023-05-21T08:06:15;99913.66;;;21.81;68.90
163;BME280;3946;48.958;8.284;2023-05-21T08:09:00;99941.16;;;21.87;69.77
163;BME280;3946;48.958;8.284;2023-05-21T08:11:45;99913.78;;;22.17;68.10
163;BME280;3946;48.958;8.284;2023-05-21T08:14:30;99914.22;;;22.36;68.14
163;BME280;3946;48.958;8.284;2023-05-21T08:17:16;99902.72;;;22.07;66.91
163;BME280;3946;48.958;8.284;2023-05-21T08:20:04;99929.81;;;22.01;67.99
163;BME280;3946;48.958;8.284;2023-05-21T08:22:53;99922.13;;;21.77;67.94
163;BME280;3946;48.958;8.284;2023-05-21T08:25:40;99930.78;;;21.85;68.22
163;BME280;3946;48.958;8.284;2023-05-21T08:28:25;99925.22;;;21.95;68.48
163;BME280;3946;48.958;8.284;2023-05-21T08:31:12;99930.03;;;21.77;69.06
163;BME280;3946;48.958;8.284;2023-05-21T08:33:57;99920.28;;;21.77;68.53
163;BME280;3946;48.958;8.284;2023-05-21T08:37:10;99924.81;;;22.57;67.84
163;BME280;3946;48.958;8.284;2023-05-21T08:40:15;99912.63;;;22.20;66.92
163;BME280;3946;48.958;8.284;2023-05-21T08:43:00;99938.22;;;21.82;68.60
163;BME280;3946;48.958;8.284;2023-05-21T08:45:59;99910.97;;;22.19;67.38
163;BME280;3946;48.958;8.284;2023-05-21T08:48:51;99914.69;;;22.10;67.50
163;BME280;3946;48.958;8.284;2023-05-21T08:51:37;99913.97;;;22.30;67.19
163;BME280;3946;48.958;8.284;2023-05-21T08:54:24;99906.56;;;22.41;66.82
163;BME280;3946;48.958;8.284;2023-05-21T08:57:10;99912.97;;;22.17;66.49
163;BME280;3946;48.958;8.284;2023-05-21T08:59:56;99918.97;;;22.11;66.35
163;BME280;3946;48.958;8.284;2023-05-21T09:02:44;99926.25;;;22.09;66.75
163;BME280;3946;48.958;8.284;2023-05-21T09:05:29;99905.16;;;22.23;65.99
163;BME280;3946;48.958;8.284;2023-05-21T09:08:15;99913.41;;;22.35;65.67
163;BME280;3946;48.958;8.284;2023-05-21T09:11:11;99890.38;;;22.80;64.65
163;BME280;3946;48.958;8.284;2023-05-21T09:14:01;99902.91;;;22.92;64.87
163;BME280;3946;48.958;8.284;2023-05-21T09:17:13;99888.03;;;22.70;63.89
163;BME280;3946;48.958;8.284;2023-05-21T09:20:04;99873.00;;;23.13;63.09
163;BME280;3946;48.958;8.284;2023-05-21T09:22:52;99845.84;;;23.26;61.13
163;BME280;3946;48.958;8.284;2023-05-21T09:25:38;99838.09;;;23.24;60.78
163;BME280;3946;48.958;8.284;2023-05-21T09:28:30;99861.09;;;23.24;60.89
163;BME280;3946;48.958;8.284;2023-05-21T09:31:15;99896.13;;;22.68;62.76
163;BME280;3946;48.958;8.284;2023-05-21T09:34:00;99909.75;;;23.08;63.78
163;BME280;3946;48.958;8.284;2023-05-21T09:36:48;99894.78;;;23.36;63.37
163;BME280;3946;48.958;8.284;2023-05-21T09:39:33;99909.94;;;23.28;63.72
163;BME280;3946;48.958;8.284;2023-05-21T09:42:21;99870.53;;;23.33;61.38
163;BME280;3946;48.958;8.284;2023-05-21T09:45:09;99902.09;;;23.62;62.87
163;BME280;3946;48.958;8.284;2023-05-21T09:47:54;99889.03;;;23.33;62.53
163;BME280;3946;48.958;8.284;2023-05-21T09:50:40;99891.47;;;23.56;62.82
163;BME280;3946;48.958;8.284;2023-05-21T09:53:25;99853.13;;;23.45;61.28
163;BME280;3946;48.958;8.284;2023-05-21T09:56:12;99889.63;;;22.86;62.27
163;BME280;3946;48.958;8.284;2023-05-21T09:58:58;99894.59;;;22.95;62.41
163;BME280;3946;48.958;8.284;2023-05-21T10:01:46;99886.41;;;22.90;62.16
163;BME280;3946;48.958;8.284;2023-05-21T10:04:33;99907.31;;;22.85;63.91
163;BME280;3946;48.958;8.284;2023-05-21T10:07:19;99911.38;;;23.09;63.90
163;BME280;3946;48.958;8.284;2023-05-21T10:10:09;99898.06;;;23.17;62.79
163;BME280;3946;48.958;8.284;2023-05-21T10:12:57;99880.25;;;23.05;62.02
163;BME280;3946;48.958;8.284;2023-05-21T10:15:43;99882.88;;;23.26;62.74
163;BME280;3946;48.958;8.284;2023-05-21T10:18:29;99915.19;;;23.49;64.28
163;BME280;3946;48.958;8.284;2023-05-21T10:21:17;99877.72;;;23.46;62.52
163;BME280;3946;48.958;8.284;2023-05-21T10:24:02;99875.28;;;23.72;62.29
163;BME280;3946;48.958;8.284;2023-05-21T10:26:48;99889.84;;;23.89;62.38
163;BME280;3946;48.958;8.284;2023-05-21T10:29:33;99844.56;;;24.12;60.71
163;BME280;3946;48.958;8.284;2023-05-21T10:32:18;99859.13;;;24.36;61.30
163;BME280;3946;48.958;8.284;2023-05-21T10:35:06;99838.44;;;24.12;60.37
163;BME280;3946;48.958;8.284;2023-05-21T10:37:52;99847.19;;;24.12;60.71
163;BME280;3946;48.958;8.284;2023-05-21T10:40:38;99859.09;;;23.88;61.08
163;BME280;3946;48.958;8.284;2023-05-21T10:46:36;99862.66;;;24.08;61.64
163;BME280;3946;48.958;8.284;2023-05-21T10:49:29;99857.59;;;24.74;61.17
163;BME280;3946;48.958;8.284;2023-05-21T10:52:24;99835.09;;;24.31;60.28
163;BME280;3946;48.958;8.284;2023-05-21T10:55:16;99873.75;;;24.25;61.90
163;BME280;3946;48.958;8.284;2023-05-21T10:58:09;99843.34;;;24.21;60.69
163;BME280;3946;48.958;8.284;2023-05-21T11:01:01;99837.19;;;24.62;60.12
163;BME280;3946;48.958;8.284;2023-05-21T11:03:46;99845.66;;;24.24;60.87
163;BME280;3946;48.958;8.284;2023-05-21T11:06:31;99850.59;;;24.40;60.81
163;BME280;3946;48.958;8.284;2023-05-21T11:09:18;99841.06;;;24.59;60.19
163;BME280;3946;48.958;8.284;2023-05-21T11:12:04;99863.41;;;24.30;61.07
163;BME280;3946;48.958;8.284;2023-05-21T11:14:54;99858.19;;;24.63;61.50
163;BME280;3946;48.958;8.284;2023-05-21T11:17:39;99835.97;;;24.58;59.75
163;BME280;3946;48.958;8.284;2023-05-21T11:20:31;99850.66;;;24.87;60.45
163;BME280;3946;48.958;8.284;2023-05-21T11:23:17;99836.44;;;25.01;60.08
163;BME280;3946;48.958;8.284;2023-05-21T11:26:08;99833.53;;;24.69;60.05
163;BME280;3946;48.958;8.284;2023-05-21T11:29:04;99820.63;;;24.40;59.75
163;BME280;3946;48.958;8.284;2023-05-21T11:31:58;99822.84;;;24.36;59.77
163;BME280;3946;48.958;8.284;2023-05-21T11:34:45;99857.41;;;24.22;61.15
163;BME280;3946;48.958;8.284;2023-05-21T11:37:31;99854.31;;;24.72;61.25
163;BME280;3946;48.958;8.284;2023-05-21T11:40:18;99845.41;;;25.20;60.67
163;BME280;3946;48.958;8.284;2023-05-21T11:43:05;99830.53;;;25.32;59.82
163;BME280;3946;48.958;8.284;2023-05-21T11:45:50;99800.47;;;25.58;57.73
163;BME280;3946;48.958;8.284;2023-05-21T11:48:36;99783.53;;;25.52;57.10
163;BME280;3946;48.958;8.284;2023-05-21T11:51:21;99803.53;;;25.61;57.97
163;BME280;3946;48.958;8.284;2023-05-21T11:54:07;99813.50;;;25.79;57.77
163;BME280;3946;48.958;8.284;2023-05-21T11:56:52;99772.59;;;26.31;56.29
163;BME280;3946;48.958;8.284;2023-05-21T11:59:40;99757.66;;;26.37;55.97
163;BME280;3946;48.958;8.284;2023-05-21T12:02:25;99751.69;;;26.10;55.39
163;BME280;3946;48.958;8.284;2023-05-21T12:05:11;99765.88;;;26.85;55.71
163;BME280;3946;48.958;8.284;2023-05-21T12:07:56;99672.91;;;27.51;52.14
163;BME280;3946;48.958;8.284;2023-05-21T12:10:41;99637.63;;;26.65;50.00
163;BME280;3946;48.958;8.284;2023-05-21T12:13:26;99636.50;;;26.97;49.47
163;BME280;3946;48.958;8.284;2023-05-21T12:16:12;99663.97;;;26.91;50.45
163;BME280;3946;48.958;8.284;2023-05-21T12:18:57;99694.31;;;26.83;51.47
163;BME280;3946;48.958;8.284;2023-05-21T12:21:42;99715.22;;;26.55;51.67
163;BME280;3946;48.958;8.284;2023-05-21T12:24:27;99744.75;;;26.09;53.07
163;BME280;3946;48.958;8.284;2023-05-21T12:27:12;99734.34;;;26.01;53.28
163;BME280;3946;48.958;8.284;2023-05-21T12:29:59;99735.84;;;26.28;53.03
163;BME280;3946;48.958;8.284;2023-05-21T12:32:48;99730.78;;;26.20;52.72
163;BME280;3946;48.958;8.284;2023-05-21T12:35:32;99744.03;;;26.27;52.81
163;BME280;3946;48.958;8.284;2023-05-21T12:38:17;99760.59;;;26.22;53.62
163;BME280;3946;48.958;8.284;2023-05-21T12:41:03;99736.56;;;26.10;52.99
163;BME280;3946;48.958;8.284;2023-05-21T12:43:50;99749.41;;;26.13;53.00
163;BME280;3946;48.958;8.284;2023-05-21T12:46:35;99749.25;;;26.02;53.77
163;BME280;3946;48.958;8.284;2023-05-21T12:49:31;99768.22;;;26.12;54.06
163;BME280;3946;48.958;8.284;2023-05-21T12:52:17;99745.50;;;26.16;53.18
163;BME280;3946;48.958;8.284;2023-05-21T12:55:04;99738.09;;;26.25;52.58
163;BME280;3946;48.958;8.284;2023-05-21T12:57:48;99762.38;;;25.97;53.78
163;BME280;3946;48.958;8.284;2023-05-21T13:00:34;99759.47;;;25.98;53.18
163;BME280;3946;48.958;8.284;2023-05-21T13:03:22;99782.53;;;26.04;54.33
163;BME280;3946;48.958;8.284;2023-05-21T13:06:08;99752.19;;;26.25;53.13
163;BME280;3946;48.958;8.284;2023-05-21T13:08:53;99774.59;;;26.42;54.24
163;BME280;3946;48.958;8.284;2023-05-21T13:11:38;99747.22;;;26.67;52.82
163;BME280;3946;48.958;8.284;2023-05-21T13:14:23;99730.34;;;26.79;52.44
163;BME280;3946;48.958;8.284;2023-05-21T13:17:08;99730.25;;;26.43;52.13
163;BME280;3946;48.958;8.284;2023-05-21T13:20:04;99742.28;;;26.70;52.36
163;BME280;3946;48.958;8.284;2023-05-21T13:22:52;99757.03;;;26.41;52.96
163;BME280;3946;48.958;8.284;2023-05-21T13:25:37;99742.94;;;26.41;52.61
163;BME280;3946;48.958;8.284;2023-05-21T13:28:22;99759.75;;;26.28;52.83
163;BME280;3946;48.958;8.284;2023-05-21T13:31:07;99759.38;;;26.18;53.43
163;BME280;3946;48.958;8.284;2023-05-21T13:33:54;99742.81;;;26.23;52.80
163;BME280;3946;48.958;8.284;2023-05-21T13:36:39;99732.06;;;26.11;51.97
163;BME280;3946;48.958;8.284;2023-05-21T13:39:26;99745.94;;;26.13;53.04
163;BME280;3946;48.958;8.284;2023-05-21T13:42:11;99750.66;;;26.11;52.72
163;BME280;3946;48.958;8.284;2023-05-21T13:44:56;99727.78;;;26.10;52.36
163;BME280;3946;48.958;8.284;2023-05-21T13:47:41;99739.84;;;26.06;52.62
163;BME280;3946;48.958;8.284;2023-05-21T13:50:26;99737.00;;;26.01;52.36
163;BME280;3946;48.958;8.284;2023-05-21T13:53:11;99750.97;;;25.90;52.70
163;BME280;3946;48.958;8.284;2023-05-21T13:55:58;99747.03;;;25.99;52.74
163;BME280;3946;48.958;8.284;2023-05-21T13:58:43;99713.03;;;26.14;51.61
163;BME280;3946;48.958;8.284;2023-05-21T14:01:28;99732.59;;;26.20;52.34
163;BME280;3946;48.958;8.284;2023-05-21T14:04:18;99738.25;;;25.98;52.09
163;BME280;3946;48.958;8.284;2023-05-21T14:07:04;99713.59;;;26.29;51.14
163;BME280;3946;48.958;8.284;2023-05-21T14:09:49;99727.22;;;26.33;51.52
163;BME280;3946;48.958;8.284;2023-05-21T14:12:38;99723.09;;;26.43;51.64
163;BME280;3946;48.958;8.284;2023-05-21T14:15:24;99735.88;;;26.53;52.39
163;BME280;3946;48.958;8.284;2023-05-21T14:18:10;99736.41;;;26.37;52.19
163;BME280;3946;48.958;8.284;2023-05-21T14:20:55;99725.59;;;26.32;51.92
163;BME280;3946;48.958;8.284;2023-05-21T14:23:40;99761.00;;;26.19;53.24
163;BME280;3946;48.958;8.284;2023-05-21T14:26:25;99758.59;;;26.49;53.02
163;BME280;3946;48.958;8.284;2023-05-21T14:29:13;99730.31;;;26.61;51.37
163;BME280;3946;48.958;8.284;2023-05-21T14:31:58;99715.47;;;26.72;51.29
163;BME280;3946;48.958;8.284;2023-05-21T14:34:43;99722.22;;;26.74;51.34
163;BME280;3946;48.958;8.284;2023-05-21T14:37:28;99709.59;;;26.88;50.83
163;BME280;3946;48.958;8.284;2023-05-21T14:40:13;99680.94;;;26.72;49.49
163;BME280;3946;48.958;8.284;2023-05-21T14:42:59;99675.47;;;26.85;49.81
163;BME280;3946;48.958;8.284;2023-05-21T14:45:45;99730.50;;;27.09;51.80
163;BME280;3946;48.958;8.284;2023-05-21T14:48:31;99671.44;;;27.37;49.77
163;BME280;3946;48.958;8.284;2023-05-21T14:51:17;99677.59;;;27.01;50.13
163;BME280;3946;48.958;8.284;2023-05-21T14:54:02;99698.69;;;26.96;50.77
163;BME280;3946;48.958;8.284;2023-05-21T14:56:47;99683.19;;;27.11;50.20
163;BME280;3946;48.958;8.284;2023-05-21T14:59:32;99643.22;;;27.00;48.70
163;BME280;3946;48.958;8.284;2023-05-21T15:02:18;99666.63;;;26.91;49.55
163;BME280;3946;48.958;8.284;2023-05-21T15:05:04;99695.19;;;27.02;50.74
163;BME280;3946;48.958;8.284;2023-05-21T15:07:51;99676.94;;;27.06;49.85
163;BME280;3946;48.958;8.284;2023-05-21T15:10:38;99694.38;;;27.20;50.46
163;BME280;3946;48.958;8.284;2023-05-21T15:13:23;99674.25;;;27.42;50.10
163;BME280;3946;48.958;8.284;2023-05-21T15:16:09;99673.25;;;27.25;49.90